createdAt,value
2019-05-07T00:01:33.961Z,3.57
2019-05-07T00:04:01.957Z,1.90
2019-05-07T00:06:28.707Z,1.70
2019-05-07T00:08:56.369Z,2.87
2019-05-07T00:11:25.888Z,2.20
2019-05-07T00:13:55.234Z,2.00
2019-05-07T00:16:23.658Z,2.57
2019-05-07T00:18:52.528Z,2.33
2019-05-07T00:21:20.212Z,2.10
2019-05-07T00:23:47.769Z,2.07
2019-05-07T00:26:17.421Z,1.67
2019-05-07T00:28:45.446Z,1.60
2019-05-07T00:31:14.532Z,1.40
2019-05-07T00:33:43.210Z,1.90
2019-05-07T00:39:17.333Z,2.47
2019-05-07T00:41:52.114Z,1.90
2019-05-07T00:44:18.933Z,3.03
2019-05-07T00:46:47.384Z,2.27
2019-05-07T00:49:15.492Z,1.80
2019-05-07T00:51:43.669Z,2.00
2019-05-07T00:54:12.294Z,2.17
2019-05-07T00:56:42.869Z,3.07
2019-05-07T00:59:08.182Z,2.47
2019-05-07T01:01:35.336Z,2.30
2019-05-07T01:04:03.923Z,2.43
2019-05-07T01:06:33.221Z,2.30
2019-05-07T01:09:03.018Z,2.07
2019-05-07T01:11:28.541Z,3.43
2019-05-07T01:13:56.514Z,1.83
2019-05-07T01:16:23.660Z,1.60
2019-05-07T01:18:53.618Z,1.23
2019-05-07T01:21:19.905Z,1.50
2019-05-07T01:23:47.676Z,2.17
2019-05-07T01:26:16.748Z,1.80
2019-05-07T01:28:50.164Z,2.67
2019-05-07T01:31:18.033Z,1.80
2019-05-07T01:33:45.416Z,2.07
2019-05-07T01:39:23.278Z,2.33
2019-05-07T01:41:52.450Z,1.73
2019-05-07T01:44:18.820Z,2.33
2019-05-07T01:46:45.679Z,2.20
2019-05-07T01:49:12.770Z,2.00
2019-05-07T01:51:42.265Z,1.83
2019-05-07T01:54:08.013Z,2.10
2019-05-07T01:56:35.476Z,1.97
2019-05-07T01:59:03.734Z,2.30
2019-05-07T02:01:33.163Z,2.07
2019-05-07T02:04:03.505Z,2.37
2019-05-07T02:06:37.899Z,1.70
2019-05-07T02:09:06.020Z,2.03
2019-05-07T02:11:48.328Z,2.20
2019-05-07T02:14:16.496Z,1.83
2019-05-07T02:16:43.447Z,2.33
2019-05-07T02:19:12.702Z,1.60
2019-05-07T02:21:38.290Z,1.87
2019-05-07T02:24:06.543Z,1.50
2019-05-07T02:26:33.862Z,1.73
2019-05-07T02:29:02.727Z,1.63
2019-05-07T02:31:33.230Z,2.03
2019-05-07T02:33:56.880Z,1.70
2019-05-07T02:36:24.808Z,1.90
2019-05-07T02:39:07.875Z,1.73
2019-05-07T02:41:35.490Z,1.87
2019-05-07T02:44:04.222Z,2.87
2019-05-07T02:46:36.328Z,2.43
2019-05-07T02:49:23.250Z,2.20
2019-05-07T02:52:03.791Z,1.90
2019-05-07T02:54:32.813Z,1.73
2019-05-07T02:56:58.054Z,1.80
2019-05-07T02:59:25.281Z,2.23
2019-05-07T03:01:53.954Z,2.67
2019-05-07T03:04:24.998Z,2.30
2019-05-07T03:06:49.823Z,1.70
2019-05-07T03:09:17.169Z,2.60
2019-05-07T03:11:45.352Z,1.60
2019-05-07T03:14:13.967Z,1.70
2019-05-07T03:16:47.605Z,1.70
2019-05-07T03:19:08.845Z,1.47
2019-05-07T03:21:44.123Z,1.33
2019-05-07T03:24:13.819Z,1.53
2019-05-07T03:26:38.020Z,1.60
2019-05-07T03:29:05.904Z,1.77
2019-05-07T03:31:45.927Z,1.57
2019-05-07T03:34:07.671Z,3.07
2019-05-07T03:36:36.786Z,1.67
2019-05-07T03:39:03.751Z,2.27
2019-05-07T03:41:33.235Z,1.77
2019-05-07T03:43:58.546Z,2.20
2019-05-07T03:46:25.467Z,1.43
2019-05-07T03:48:53.120Z,1.37
2019-05-07T03:51:19.943Z,1.10
2019-05-07T03:53:46.728Z,1.27
2019-05-07T03:56:13.543Z,6.03
2019-05-07T03:58:42.883Z,1.63
2019-05-07T04:01:08.541Z,1.37
2019-05-07T04:03:36.477Z,1.10
2019-05-07T04:06:04.570Z,1.00
2019-05-07T04:08:33.396Z,0.93
2019-05-07T04:11:03.177Z,0.90
2019-05-07T04:13:28.277Z,1.00
2019-05-07T04:15:55.634Z,0.80
2019-05-07T04:18:23.705Z,1.77
2019-05-07T04:20:49.805Z,0.93
2019-05-07T04:23:17.061Z,0.93
2019-05-07T04:25:52.685Z,1.30
2019-05-07T04:28:23.662Z,1.07
2019-05-07T04:30:48.376Z,0.83
2019-05-07T04:33:17.497Z,2.00
2019-05-07T04:38:38.845Z,1.10
2019-05-07T04:41:05.841Z,0.80
2019-05-07T04:43:33.713Z,1.13
2019-05-07T04:46:02.809Z,0.67
2019-05-07T04:48:27.219Z,0.83
2019-05-07T04:50:55.662Z,0.87
2019-05-07T04:53:23.867Z,0.80
2019-05-07T04:55:53.264Z,1.77
2019-05-07T04:58:17.628Z,0.70
2019-05-07T05:00:44.528Z,0.90
2019-05-07T05:03:12.885Z,1.30
2019-05-07T05:05:38.976Z,2.50
2019-05-07T05:08:05.831Z,1.00
2019-05-07T05:10:33.761Z,0.90
2019-05-07T05:13:02.907Z,0.93
2019-05-07T05:15:27.622Z,0.83
2019-05-07T05:17:54.419Z,0.83
2019-05-07T05:20:22.168Z,1.93
2019-05-07T05:22:53.162Z,0.73
2019-05-07T05:25:22.720Z,0.60
2019-05-07T05:27:48.295Z,0.77
2019-05-07T05:30:17.643Z,0.60
2019-05-07T05:32:45.510Z,0.70
2019-05-07T05:35:12.742Z,0.80
2019-05-07T05:37:39.913Z,0.77
2019-05-07T05:40:08.866Z,0.63
2019-05-07T05:42:33.572Z,0.77
2019-05-07T05:45:02.072Z,0.43
2019-05-07T05:47:27.291Z,1.23
2019-05-07T05:49:54.995Z,0.55
2019-05-07T05:52:23.607Z,0.60
2019-05-07T05:54:52.873Z,0.70
2019-05-07T05:57:19.905Z,0.50
2019-05-07T05:59:52.011Z,0.50
2019-05-07T06:05:15.534Z,0.60
2019-05-07T06:07:45.547Z,0.67
2019-05-07T06:10:14.541Z,0.53
2019-05-07T06:12:42.872Z,0.57
2019-05-07T06:15:12.706Z,0.50
2019-05-07T06:17:42.747Z,0.47
2019-05-07T06:20:12.164Z,0.50
2019-05-07T06:22:55.992Z,0.50
2019-05-07T06:25:24.649Z,0.47
2019-05-07T06:27:49.613Z,0.60
2019-05-07T06:30:17.147Z,0.50
2019-05-07T06:32:44.039Z,0.67
2019-05-07T06:35:12.257Z,0.50
2019-05-07T06:37:38.337Z,0.53
2019-05-07T06:43:21.813Z,0.80
2019-05-07T06:45:51.926Z,0.87
2019-05-07T06:48:17.771Z,1.20
2019-05-07T06:51:03.283Z,2.00
2019-05-07T06:53:30.103Z,0.50
2019-05-07T06:55:57.003Z,1.30
2019-05-07T06:58:24.598Z,0.40
2019-05-07T07:01:06.216Z,0.50
2019-05-07T07:03:35.966Z,0.50
2019-05-07T07:06:02.874Z,0.40
2019-05-07T07:08:32.424Z,0.47
2019-05-07T07:11:03.512Z,0.73
2019-05-07T07:13:32.154Z,0.50
2019-05-07T07:15:57.152Z,0.40
2019-05-07T07:18:23.865Z,1.20
2019-05-07T07:20:52.323Z,0.40
2019-05-07T07:23:17.349Z,0.57
2019-05-07T07:25:44.872Z,0.57
2019-05-07T07:28:12.318Z,0.43
2019-05-07T07:30:55.131Z,0.50
2019-05-07T07:33:22.415Z,0.60
2019-05-07T07:35:48.696Z,0.63
2019-05-07T07:38:22.285Z,1.90
2019-05-07T07:40:48.982Z,0.50
2019-05-07T07:43:15.675Z,0.50
2019-05-07T07:45:42.535Z,0.50
2019-05-07T07:48:09.491Z,0.50
2019-05-07T07:50:36.215Z,0.77
2019-05-07T07:53:02.984Z,0.40
2019-05-07T07:55:29.746Z,0.60
2019-05-07T07:57:57.294Z,0.45
2019-05-07T08:00:26.117Z,0.50
2019-05-07T08:02:52.928Z,0.43
2019-05-07T08:05:18.815Z,1.12
2019-05-07T08:07:45.555Z,0.60
2019-05-07T08:10:12.940Z,0.50
2019-05-07T08:12:39.348Z,0.60
2019-05-07T08:15:16.639Z,0.43
2019-05-07T08:17:33.133Z,0.47
2019-05-07T08:20:02.389Z,0.47
2019-05-07T08:22:27.534Z,0.45
2019-05-07T08:24:54.382Z,0.40
2019-05-07T08:27:22.241Z,0.53
2019-05-07T08:29:48.167Z,0.33
2019-05-07T08:32:15.827Z,0.40
2019-05-07T08:35:02.330Z,0.47
2019-05-07T08:37:27.169Z,0.47
2019-05-07T08:39:53.863Z,0.40
2019-05-07T08:42:22.670Z,0.40
2019-05-07T08:44:47.652Z,0.40
2019-05-07T08:47:18.265Z,0.50
2019-05-07T08:49:44.973Z,0.50
2019-05-07T08:52:12.687Z,0.73
2019-05-07T08:54:39.403Z,0.30
2019-05-07T08:57:06.156Z,0.47
2019-05-07T08:59:33.011Z,0.30
2019-05-07T09:01:59.853Z,0.40
2019-05-07T09:04:26.595Z,0.57
2019-05-07T09:06:53.441Z,0.47
2019-05-07T09:09:22.258Z,1.33
2019-05-07T09:11:47.123Z,0.40
2019-05-07T09:14:14.022Z,0.47
2019-05-07T09:16:42.733Z,0.50
2019-05-07T09:19:08.370Z,0.30
2019-05-07T09:21:36.235Z,0.40
2019-05-07T09:24:03.066Z,0.63
2019-05-07T09:26:44.851Z,0.40
2019-05-07T09:29:23.596Z,0.40
2019-05-07T09:31:53.292Z,1.70
2019-05-07T09:34:22.158Z,0.50
2019-05-07T09:36:46.891Z,0.60
2019-05-07T09:39:13.606Z,0.40
2019-05-07T09:41:41.779Z,0.80
2019-05-07T09:44:07.925Z,0.40
2019-05-07T09:46:34.642Z,0.57
2019-05-07T09:49:03.068Z,0.93
2019-05-07T09:51:28.152Z,0.37
2019-05-07T09:53:54.868Z,0.50
2019-05-07T09:56:22.897Z,0.40
2019-05-07T09:58:49.263Z,0.43
2019-05-07T10:01:16.009Z,0.40
2019-05-07T10:03:43.027Z,0.37
2019-05-07T10:06:09.621Z,0.40
2019-05-07T10:08:36.406Z,0.37
2019-05-07T10:11:03.966Z,0.60
2019-05-07T10:13:32.979Z,0.40
2019-05-07T10:15:59.997Z,0.40
2019-05-07T10:18:27.452Z,0.63
2019-05-07T10:20:54.917Z,0.40
2019-05-07T10:23:22.974Z,0.40
2019-05-07T10:25:48.555Z,0.40
2019-05-07T10:28:15.297Z,0.43
2019-05-07T10:30:42.802Z,0.30
2019-05-07T10:33:08.826Z,0.40
2019-05-07T10:35:36.282Z,0.40
2019-05-07T10:38:03.810Z,0.60
2019-05-07T10:40:32.570Z,0.60
2019-05-07T10:42:58.088Z,0.60
2019-05-07T10:45:26.765Z,0.50
2019-05-07T10:47:53.512Z,0.60
2019-05-07T10:50:35.386Z,2.00
2019-05-07T10:52:49.005Z,0.40
2019-05-07T10:55:15.778Z,0.73
2019-05-07T10:57:42.803Z,0.40
2019-05-07T11:00:09.664Z,1.20
2019-05-07T11:02:39.197Z,0.50
2019-05-07T11:05:04.795Z,0.50
2019-05-07T11:07:32.809Z,0.57
2019-05-07T11:09:58.337Z,0.70
2019-05-07T11:12:25.828Z,0.60
2019-05-07T11:14:52.576Z,0.50
2019-05-07T11:17:25.565Z,1.23
2019-05-07T11:19:52.512Z,0.70
2019-05-07T11:22:19.211Z,0.60
2019-05-07T11:24:46.675Z,3.00
2019-05-07T11:27:14.289Z,0.60
2019-05-07T11:29:42.970Z,0.67
2019-05-07T11:32:09.591Z,0.60
2019-05-07T11:34:36.432Z,0.60
2019-05-07T11:37:03.276Z,0.50
2019-05-07T11:39:30.017Z,0.43
2019-05-07T11:42:03.006Z,0.50
2019-05-07T11:44:31.933Z,0.87
2019-05-07T11:47:12.313Z,0.70
2019-05-07T11:49:57.204Z,0.50
2019-05-07T11:52:23.929Z,0.60
2019-05-07T11:54:52.514Z,0.60
2019-05-07T11:57:17.688Z,0.53
2019-05-07T11:59:45.129Z,0.60
2019-05-07T12:02:12.104Z,0.50
2019-05-07T12:04:38.684Z,0.70
2019-05-07T12:07:05.443Z,0.60
2019-05-07T12:09:33.249Z,0.50
2019-05-07T12:11:59.831Z,0.50
2019-05-07T12:14:31.540Z,0.50
2019-05-07T12:16:53.293Z,3.13
2019-05-07T12:19:20.082Z,0.30
2019-05-07T12:21:46.796Z,0.27
2019-05-07T12:24:16.255Z,0.30
2019-05-07T12:26:41.726Z,0.30
2019-05-07T12:29:07.233Z,0.40
2019-05-07T12:31:44.940Z,0.30
2019-05-07T12:34:11.901Z,0.57
2019-05-07T12:36:38.451Z,0.40
2019-05-07T12:39:05.346Z,0.20
2019-05-07T12:41:33.668Z,0.30
2019-05-07T12:43:59.891Z,0.20
2019-05-07T12:46:26.639Z,0.20
2019-05-07T12:48:54.150Z,0.30
2019-05-07T12:54:18.952Z,0.25
2019-05-07T12:56:45.673Z,0.30
2019-05-07T12:59:12.822Z,0.20
2019-05-07T13:01:42.194Z,0.87
2019-05-07T13:04:08.861Z,0.20
2019-05-07T13:06:35.736Z,1.50
2019-05-07T13:09:02.580Z,0.30
2019-05-07T13:11:29.282Z,0.30
2019-05-07T13:13:56.779Z,0.20
2019-05-07T13:16:23.483Z,0.30
2019-05-07T13:18:52.611Z,0.83
2019-05-07T13:21:17.819Z,0.20
2019-05-07T13:23:44.660Z,0.20
2019-05-07T13:26:11.504Z,0.30
2019-05-07T13:28:38.724Z,0.20
2019-05-07T13:31:06.933Z,0.80
2019-05-07T13:33:34.527Z,0.20
2019-05-07T13:36:02.322Z,0.20
2019-05-07T13:38:27.764Z,0.30
2019-05-07T13:40:55.361Z,0.20
2019-05-07T13:43:23.170Z,0.30
2019-05-07T13:45:56.179Z,0.20
2019-05-07T13:48:23.226Z,0.20
2019-05-07T13:50:49.967Z,0.37
2019-05-07T13:53:16.761Z,0.37
2019-05-07T13:55:44.256Z,0.30
2019-05-07T13:58:14.013Z,0.40
2019-05-07T14:00:42.591Z,0.30
2019-05-07T14:03:07.766Z,0.40
2019-05-07T14:05:35.325Z,0.50
2019-05-07T14:08:04.514Z,0.40
2019-05-07T14:10:28.983Z,0.20
2019-05-07T14:13:07.568Z,0.23
2019-05-07T14:15:23.129Z,0.30
2019-05-07T14:17:49.641Z,0.30
2019-05-07T14:20:16.383Z,0.20
2019-05-07T14:22:43.534Z,0.23
2019-05-07T14:25:11.604Z,0.30
2019-05-07T14:27:38.444Z,0.30
2019-05-07T14:30:05.697Z,0.40
2019-05-07T14:32:34.691Z,0.40
2019-05-07T14:35:02.460Z,0.40
2019-05-07T14:37:32.354Z,0.30
2019-05-07T14:39:57.882Z,0.20
2019-05-07T14:42:25.544Z,0.30
2019-05-07T14:44:52.812Z,1.27
2019-05-07T14:47:19.241Z,0.30
2019-05-07T14:49:46.075Z,0.20
2019-05-07T14:52:13.019Z,0.30
2019-05-07T14:54:39.860Z,0.30
2019-05-07T14:57:06.809Z,0.10
2019-05-07T14:59:33.648Z,0.63
2019-05-07T15:02:02.701Z,2.47
2019-05-07T15:04:27.335Z,2.00
2019-05-07T15:06:54.282Z,0.20
2019-05-07T15:09:22.419Z,0.20
2019-05-07T15:11:47.969Z,1.07
2019-05-07T15:14:14.809Z,0.40
2019-05-07T15:16:42.623Z,0.33
2019-05-07T15:19:09.928Z,0.30
2019-05-07T15:21:37.283Z,0.30
2019-05-07T15:24:04.641Z,0.40
2019-05-07T15:26:32.601Z,0.30
2019-05-07T15:28:58.533Z,0.20
2019-05-07T15:31:32.047Z,0.30
2019-05-07T15:33:59.163Z,0.30
2019-05-07T15:36:25.927Z,0.20
2019-05-07T15:38:52.864Z,0.30
2019-05-07T15:41:19.709Z,0.33
2019-05-07T15:43:46.552Z,0.40
2019-05-07T15:46:13.495Z,0.30
2019-05-07T15:48:41.899Z,1.70
2019-05-07T15:51:07.179Z,0.30
2019-05-07T15:53:52.338Z,0.30
2019-05-07T15:56:18.889Z,0.40
2019-05-07T15:58:45.629Z,0.33
2019-05-07T16:01:12.820Z,0.50
2019-05-07T16:03:46.994Z,0.23
2019-05-07T16:06:13.969Z,0.50
2019-05-07T16:08:42.512Z,0.30
2019-05-07T16:11:07.831Z,0.30
2019-05-07T16:13:46.653Z,0.30
2019-05-07T16:16:13.489Z,1.33
2019-05-07T16:18:56.109Z,0.27
2019-05-07T16:21:22.848Z,0.30
2019-05-07T16:23:49.565Z,0.40
2019-05-07T16:26:16.345Z,0.40
2019-05-07T16:28:43.051Z,0.30
2019-05-07T16:31:09.768Z,0.30
2019-05-07T16:33:37.242Z,0.57
2019-05-07T16:36:03.977Z,1.10
2019-05-07T16:38:32.538Z,0.87
2019-05-07T16:40:57.531Z,0.40
2019-05-07T16:43:24.987Z,0.30
2019-05-07T16:45:51.898Z,0.50
2019-05-07T16:48:23.072Z,0.40
2019-05-07T16:50:47.799Z,0.40
2019-05-07T16:53:26.569Z,1.17
2019-05-07T16:59:12.759Z,0.33
2019-05-07T17:01:39.526Z,0.40
2019-05-07T17:04:06.247Z,0.60
2019-05-07T17:06:33.050Z,0.50
2019-05-07T17:08:59.905Z,0.60
2019-05-07T17:11:26.626Z,0.50
2019-05-07T17:13:54.102Z,1.30
2019-05-07T17:16:22.677Z,0.40
2019-05-07T17:18:48.498Z,0.50
2019-05-07T17:21:15.235Z,0.50
2019-05-07T17:23:44.697Z,0.50
2019-05-07T17:26:08.758Z,0.57
2019-05-07T17:28:35.579Z,0.63
2019-05-07T17:31:03.033Z,0.50
2019-05-07T17:33:29.186Z,1.13
2019-05-07T17:35:56.039Z,1.30
2019-05-07T17:38:23.221Z,0.70
2019-05-07T17:40:52.142Z,0.40
2019-05-07T17:43:17.203Z,0.50
2019-05-07T17:45:44.006Z,0.60
2019-05-07T17:48:12.321Z,3.03
2019-05-07T17:50:53.490Z,2.37
2019-05-07T17:53:22.536Z,2.00
2019-05-07T17:55:47.639Z,0.80
2019-05-07T17:58:14.432Z,0.50
2019-05-07T18:00:42.111Z,1.37
2019-05-07T18:03:13.350Z,0.67
2019-05-07T18:05:42.335Z,1.80
2019-05-07T18:08:07.449Z,0.70
2019-05-07T18:10:35.169Z,0.63
2019-05-07T18:13:01.967Z,0.57
2019-05-07T18:15:28.812Z,1.30
2019-05-07T18:18:02.857Z,0.93
2019-05-07T18:20:27.198Z,0.43
2019-05-07T18:22:54.638Z,1.20
2019-05-07T18:25:21.777Z,0.90
2019-05-07T18:27:48.599Z,0.60
2019-05-07T18:30:16.128Z,1.17
2019-05-07T18:32:53.158Z,8.00
2019-05-07T18:35:20.061Z,5.73
2019-05-07T18:37:52.562Z,7.93
2019-05-07T18:40:18.791Z,4.10
2019-05-07T18:42:45.721Z,2.10
2019-05-07T18:45:12.549Z,1.10
2019-05-07T18:47:39.229Z,1.17
2019-05-07T18:50:05.992Z,0.83
2019-05-07T18:52:32.799Z,0.73
2019-05-07T18:54:59.483Z,0.50
2019-05-07T18:57:26.250Z,0.80
2019-05-07T18:59:53.296Z,1.17
2019-05-07T19:02:22.521Z,4.17
2019-05-07T19:04:47.836Z,0.80
2019-05-07T19:07:14.691Z,2.93
2019-05-07T19:09:42.388Z,0.93
2019-05-07T19:12:09.044Z,0.80
2019-05-07T19:14:35.850Z,0.90
2019-05-07T19:17:03.191Z,0.73
2019-05-07T19:19:29.686Z,0.47
2019-05-07T19:21:56.416Z,0.60
2019-05-07T19:24:26.244Z,0.50
2019-05-07T19:26:52.686Z,0.40
2019-05-07T19:29:18.738Z,1.13
2019-05-07T19:31:45.469Z,0.50
2019-05-07T19:34:12.451Z,0.40
2019-05-07T19:36:42.255Z,0.47
2019-05-07T19:39:07.366Z,0.83
2019-05-07T19:41:34.604Z,1.40
2019-05-07T19:44:02.004Z,0.40
2019-05-07T19:46:28.328Z,0.40
2019-05-07T19:48:55.241Z,0.30
2019-05-07T19:51:22.107Z,0.63
2019-05-07T19:53:49.502Z,0.60
2019-05-07T19:56:17.466Z,0.40
2019-05-07T19:58:44.260Z,0.70
2019-05-07T20:01:12.230Z,0.40
2019-05-07T20:03:38.518Z,0.63
2019-05-07T20:06:05.564Z,0.53
2019-05-07T20:08:32.504Z,0.30
2019-05-07T20:11:02.815Z,0.57
2019-05-07T20:13:29.579Z,0.40
2019-05-07T20:16:07.347Z,0.57
2019-05-07T20:18:34.235Z,0.30
2019-05-07T20:21:02.657Z,0.43
2019-05-07T20:23:28.535Z,0.50
2019-05-07T20:25:56.672Z,0.50
2019-05-07T20:28:24.251Z,0.30
2019-05-07T20:30:52.961Z,0.50
2019-05-07T20:33:17.830Z,0.50
2019-05-07T20:35:44.748Z,0.57
2019-05-07T20:38:11.507Z,0.40
2019-05-07T20:40:38.223Z,0.40
2019-05-07T20:43:05.184Z,1.70
2019-05-07T20:45:32.174Z,0.40
2019-05-07T20:47:58.844Z,0.63
2019-05-07T20:50:25.600Z,1.13
2019-05-07T20:52:52.478Z,0.60
2019-05-07T20:55:30.557Z,0.50
2019-05-07T20:57:53.546Z,0.40
2019-05-07T21:00:18.262Z,0.47
2019-05-07T21:02:48.232Z,0.70
2019-05-07T21:05:12.740Z,0.60
2019-05-07T21:07:39.411Z,0.63
2019-05-07T21:10:06.915Z,0.47
2019-05-07T21:12:33.686Z,0.50
2019-05-07T21:15:03.252Z,0.80
2019-05-07T21:17:28.621Z,0.60
2019-05-07T21:19:55.513Z,0.60
2019-05-07T21:22:22.817Z,0.50
2019-05-07T21:24:49.774Z,0.63
2019-05-07T21:27:16.773Z,0.60
2019-05-07T21:29:43.926Z,0.60
2019-05-07T21:32:12.422Z,0.40
2019-05-07T21:34:38.779Z,0.40
2019-05-07T21:37:08.520Z,0.40
2019-05-07T21:39:34.566Z,0.60
2019-05-07T21:42:02.028Z,0.57
2019-05-07T21:44:32.350Z,0.73
2019-05-07T21:46:57.919Z,0.80
2019-05-07T21:49:24.744Z,0.60
2019-05-07T21:51:52.346Z,0.50
2019-05-07T21:54:23.461Z,0.60
2019-05-07T21:56:54.596Z,0.40
2019-05-07T21:59:21.896Z,0.50
2019-05-07T22:01:49.712Z,0.90
2019-05-07T22:04:16.519Z,0.60
2019-05-07T22:06:45.561Z,0.50
2019-05-07T22:09:12.670Z,0.40
2019-05-07T22:11:38.839Z,0.57
2019-05-07T22:19:46.860Z,0.60
2019-05-07T22:22:14.678Z,1.10
2019-05-07T22:24:42.566Z,0.50
2019-05-07T22:27:08.937Z,0.53
2019-05-07T22:29:36.394Z,1.13
2019-05-07T22:32:09.063Z,0.50
2019-05-07T22:34:37.482Z,0.43
2019-05-07T22:37:04.271Z,0.43
2019-05-07T22:39:32.737Z,0.90
2019-05-07T22:41:58.584Z,0.40
2019-05-07T22:44:26.313Z,0.50
2019-05-07T22:46:52.742Z,0.40
2019-05-07T22:49:33.856Z,0.73
2019-05-07T22:52:02.348Z,0.50
2019-05-07T22:54:28.161Z,0.60
2019-05-07T22:56:54.889Z,0.97
2019-05-07T22:59:22.433Z,0.77
2019-05-07T23:01:48.424Z,0.47
2019-05-07T23:04:15.932Z,1.13
2019-05-07T23:06:43.680Z,0.53
2019-05-07T23:09:10.228Z,0.67
2019-05-07T23:11:36.955Z,0.37
2019-05-07T23:14:03.767Z,0.40
2019-05-07T23:16:32.421Z,0.33
2019-05-07T23:18:57.368Z,0.50
2019-05-07T23:21:24.621Z,0.57
2019-05-07T23:23:52.764Z,0.40
2019-05-07T23:26:17.723Z,0.73
2019-05-07T23:28:44.481Z,0.53
2019-05-07T23:31:12.105Z,0.50
2019-05-07T23:33:38.024Z,0.60
2019-05-07T23:36:04.727Z,0.50
2019-05-07T23:38:32.199Z,0.60
2019-05-07T23:41:02.138Z,0.50
2019-05-07T23:43:27.765Z,0.60
2019-05-07T23:45:54.476Z,0.50
2019-05-07T23:48:22.820Z,0.47
2019-05-07T23:50:48.014Z,0.60
2019-05-07T23:53:15.516Z,0.40
2019-05-07T23:55:42.491Z,0.70
2019-05-07T23:58:08.990Z,1.17
